createdAt,value
2018-07-25T00:02:06.803Z,18.10
2018-07-25T00:04:35.446Z,18.10
2018-07-25T00:07:04.064Z,18.00
2018-07-25T00:09:32.696Z,18.10
2018-07-25T00:12:01.312Z,18.00
2018-07-25T00:14:29.901Z,17.90
2018-07-25T00:16:58.578Z,18.00
2018-07-25T00:19:27.235Z,18.00
2018-07-25T00:21:55.857Z,18.00
2018-07-25T00:24:24.554Z,18.00
2018-07-25T00:26:53.214Z,17.90
2018-07-25T00:29:21.814Z,17.90
2018-07-25T00:31:50.507Z,17.80
2018-07-25T00:34:19.216Z,17.60
2018-07-25T00:36:47.895Z,17.60
2018-07-25T00:39:16.516Z,17.50
2018-07-25T00:41:45.159Z,17.50
2018-07-25T00:44:13.785Z,17.50
2018-07-25T00:46:42.446Z,17.50
2018-07-25T00:49:11.084Z,17.40
2018-07-25T00:51:39.715Z,17.30
2018-07-25T00:54:08.426Z,17.30
2018-07-25T00:56:37.109Z,17.20
2018-07-25T00:59:05.830Z,17.20
2018-07-25T01:01:34.474Z,17.10
2018-07-25T01:04:03.147Z,17.10
2018-07-25T01:06:31.907Z,17.20
2018-07-25T01:09:00.502Z,17.30
2018-07-25T01:11:29.247Z,17.30
2018-07-25T01:13:57.852Z,17.20
2018-07-25T01:16:26.654Z,17.20
2018-07-25T01:18:55.234Z,17.10
2018-07-25T01:21:23.847Z,17.10
2018-07-25T01:23:52.534Z,17.10
2018-07-25T01:26:21.309Z,17.20
2018-07-25T01:28:50.032Z,17.20
2018-07-25T01:31:19.487Z,17.10
2018-07-25T01:33:48.299Z,17.10
2018-07-25T01:36:17.011Z,17.00
2018-07-25T01:38:45.613Z,17.00
2018-07-25T01:41:14.182Z,17.00
2018-07-25T01:43:42.866Z,17.10
2018-07-25T01:46:11.455Z,17.00
2018-07-25T01:48:40.093Z,17.00
2018-07-25T01:51:08.707Z,17.00
2018-07-25T01:53:37.349Z,17.00
2018-07-25T01:56:06.355Z,17.00
2018-07-25T01:58:34.990Z,16.80
2018-07-25T02:01:03.601Z,16.80
2018-07-25T02:03:32.218Z,16.80
2018-07-25T02:06:00.902Z,16.80
2018-07-25T02:08:29.526Z,16.70
2018-07-25T02:10:58.105Z,16.80
2018-07-25T02:13:26.680Z,16.80
2018-07-25T02:15:55.280Z,16.80
2018-07-25T02:18:23.859Z,16.70
2018-07-25T02:20:52.625Z,16.70
2018-07-25T02:23:21.185Z,16.80
2018-07-25T02:25:49.754Z,16.70
2018-07-25T02:28:18.374Z,16.70
2018-07-25T02:30:47.099Z,16.70
2018-07-25T02:33:15.689Z,16.60
2018-07-25T02:35:44.267Z,16.60
2018-07-25T02:38:12.771Z,16.60
2018-07-25T02:40:41.353Z,16.40
2018-07-25T02:43:09.885Z,16.30
2018-07-25T02:45:43.883Z,16.30
2018-07-25T02:48:12.519Z,16.30
2018-07-25T02:50:41.280Z,16.30
2018-07-25T02:53:09.927Z,16.20
2018-07-25T02:55:38.526Z,16.20
2018-07-25T02:58:07.160Z,16.20
2018-07-25T03:00:35.779Z,16.10
2018-07-25T03:03:04.453Z,16.10
2018-07-25T03:05:33.155Z,16.00
2018-07-25T03:08:01.861Z,16.00
2018-07-25T03:10:30.473Z,16.00
2018-07-25T03:12:59.190Z,15.90
2018-07-25T03:15:28.428Z,15.90
2018-07-25T03:17:57.034Z,16.00
2018-07-25T03:20:25.668Z,15.90
2018-07-25T03:22:54.299Z,15.90
2018-07-25T03:25:22.908Z,15.80
2018-07-25T03:27:51.565Z,15.80
2018-07-25T03:30:20.315Z,15.70
2018-07-25T03:32:48.919Z,15.70
2018-07-25T03:35:17.782Z,15.80
2018-07-25T03:37:46.366Z,15.80
2018-07-25T03:40:14.942Z,15.70
2018-07-25T03:42:43.542Z,15.70
2018-07-25T03:45:12.111Z,15.80
2018-07-25T03:47:40.667Z,15.90
2018-07-25T03:50:09.348Z,15.90
2018-07-25T03:52:38.091Z,15.90
2018-07-25T03:55:06.714Z,15.90
2018-07-25T03:57:36.918Z,16.00
2018-07-25T04:00:05.927Z,16.10
2018-07-25T04:02:34.597Z,16.10
2018-07-25T04:05:03.166Z,16.10
2018-07-25T04:07:31.705Z,16.20
2018-07-25T04:10:00.370Z,16.20
2018-07-25T04:12:29.008Z,16.20
2018-07-25T04:14:57.512Z,16.30
2018-07-25T04:17:30.507Z,16.40
2018-07-25T04:20:00.920Z,16.30
2018-07-25T04:22:30.493Z,16.30
2018-07-25T04:24:59.162Z,16.40
2018-07-25T04:27:27.736Z,16.40
2018-07-25T04:29:56.359Z,16.40
2018-07-25T04:32:24.943Z,16.40
2018-07-25T04:34:53.722Z,16.40
2018-07-25T04:37:22.318Z,16.50
2018-07-25T04:39:50.904Z,16.60
2018-07-25T04:42:19.841Z,16.70
2018-07-25T04:44:48.542Z,16.70
2018-07-25T04:47:17.136Z,16.70
2018-07-25T04:49:46.105Z,16.80
2018-07-25T04:52:15.132Z,17.00
2018-07-25T04:54:43.855Z,17.20
2018-07-25T04:57:12.573Z,17.30
2018-07-25T04:59:41.424Z,17.40
2018-07-25T05:02:10.357Z,17.50
2018-07-25T05:04:39.062Z,17.70
2018-07-25T05:07:07.647Z,17.90
2018-07-25T05:09:36.244Z,18.00
2018-07-25T05:12:04.912Z,18.20
2018-07-25T05:14:33.454Z,18.30
2018-07-25T05:17:02.050Z,18.40
2018-07-25T05:19:30.623Z,18.70
2018-07-25T05:21:59.190Z,19.20
2018-07-25T05:24:27.788Z,19.80
2018-07-25T05:26:56.447Z,20.10
2018-07-25T05:29:25.097Z,20.20
2018-07-25T05:31:53.836Z,20.10
2018-07-25T05:34:22.469Z,19.70
2018-07-25T05:36:51.099Z,19.60
2018-07-25T05:39:19.727Z,19.40
2018-07-25T05:41:48.334Z,19.20
2018-07-25T05:44:16.870Z,19.10
2018-07-25T05:46:45.471Z,19.20
2018-07-25T05:49:14.157Z,19.20
2018-07-25T05:51:42.786Z,19.30
2018-07-25T05:54:11.396Z,19.60
2018-07-25T05:56:40.051Z,19.70
2018-07-25T05:59:08.638Z,19.90
2018-07-25T06:01:37.299Z,19.90
2018-07-25T06:04:05.942Z,20.00
2018-07-25T06:06:34.587Z,20.40
2018-07-25T06:09:03.447Z,21.00
2018-07-25T06:11:32.068Z,22.00
2018-07-25T06:14:00.618Z,22.70
2018-07-25T06:16:29.307Z,23.30
2018-07-25T06:18:57.845Z,23.70
2018-07-25T06:21:26.494Z,23.70
2018-07-25T06:23:55.142Z,24.20
2018-07-25T06:26:23.814Z,24.80
2018-07-25T06:28:52.450Z,25.20
2018-07-25T06:31:21.060Z,25.90
2018-07-25T06:33:49.678Z,26.50
2018-07-25T06:36:18.235Z,26.80
2018-07-25T06:38:46.930Z,27.80
2018-07-25T06:41:15.771Z,28.20
2018-07-25T06:43:44.529Z,28.40
2018-07-25T06:46:13.306Z,29.00
2018-07-25T06:48:41.893Z,29.70
2018-07-25T06:53:39.127Z,30.00
2018-07-25T06:56:07.764Z,29.00
2018-07-25T06:58:36.331Z,28.80
2018-07-25T07:01:04.916Z,28.90
2018-07-25T07:03:33.618Z,29.20
2018-07-25T07:06:02.210Z,29.80
2018-07-25T07:08:31.866Z,29.90
2018-07-25T07:11:00.469Z,30.00
2018-07-25T07:13:29.025Z,30.70
2018-07-25T07:15:57.572Z,31.30
2018-07-25T07:18:26.213Z,32.00
2018-07-25T07:20:54.830Z,32.20
2018-07-25T07:23:23.414Z,32.30
2018-07-25T07:25:52.075Z,30.90
2018-07-25T07:28:20.584Z,30.70
2018-07-25T07:30:49.273Z,31.50
2018-07-25T07:33:17.881Z,31.90
2018-07-25T07:35:46.402Z,31.60
2018-07-25T07:38:14.966Z,32.40
2018-07-25T07:40:43.708Z,32.50
2018-07-25T07:43:12.332Z,31.40
2018-07-25T07:45:40.866Z,31.90
2018-07-25T07:48:09.455Z,32.70
2018-07-25T07:50:38.130Z,33.50
2018-07-25T07:53:06.642Z,33.70
2018-07-25T07:55:35.082Z,33.90
2018-07-25T07:58:03.575Z,34.10
2018-07-25T08:00:32.067Z,33.90
2018-07-25T08:03:00.534Z,33.90
2018-07-25T08:05:28.966Z,34.70
2018-07-25T08:07:57.424Z,34.90
2018-07-25T08:10:25.893Z,35.20
2018-07-25T08:12:54.378Z,35.10
2018-07-25T08:15:22.820Z,35.40
2018-07-25T08:17:51.276Z,35.40
2018-07-25T08:20:19.810Z,36.10
2018-07-25T08:22:48.261Z,36.20
2018-07-25T08:25:16.691Z,35.90
2018-07-25T08:27:45.242Z,35.40
2018-07-25T08:30:13.926Z,35.60
2018-07-25T08:32:42.560Z,36.00
2018-07-25T08:35:12.250Z,36.70
2018-07-25T08:37:40.834Z,37.40
2018-07-25T08:40:09.397Z,37.70
2018-07-25T08:42:38.090Z,37.70
2018-07-25T08:45:07.271Z,36.30
2018-07-25T08:47:35.790Z,35.60
2018-07-25T08:50:05.192Z,36.10
2018-07-25T08:52:33.695Z,36.60
2018-07-25T08:55:02.116Z,35.80
2018-07-25T08:57:30.558Z,36.00
2018-07-25T08:59:59.005Z,36.70
2018-07-25T09:02:27.465Z,36.80
2018-07-25T09:04:55.919Z,37.30
2018-07-25T09:07:24.394Z,37.80
2018-07-25T09:09:52.841Z,38.20
2018-07-25T09:12:21.345Z,38.60
2018-07-25T09:14:49.781Z,37.70
2018-07-25T09:17:18.224Z,37.50
2018-07-25T09:19:46.712Z,37.80
2018-07-25T09:22:15.142Z,38.00
2018-07-25T09:24:43.614Z,37.80
2018-07-25T09:27:12.089Z,38.30
2018-07-25T09:29:40.530Z,38.60
2018-07-25T09:32:09.025Z,38.60
2018-07-25T09:34:37.635Z,38.30
2018-07-25T09:37:06.130Z,38.50
2018-07-25T09:39:34.744Z,37.60
2018-07-25T09:42:03.241Z,37.50
2018-07-25T09:44:31.672Z,37.40
2018-07-25T09:47:00.228Z,38.40
2018-07-25T09:49:28.682Z,39.10
2018-07-25T09:51:57.134Z,39.10
2018-07-25T09:54:25.580Z,38.70
2018-07-25T09:56:54.050Z,38.00
2018-07-25T09:59:22.499Z,37.50
2018-07-25T10:01:51.067Z,37.50
2018-07-25T10:04:19.535Z,38.30
2018-07-25T10:06:48.038Z,38.00
2018-07-25T10:09:16.509Z,38.80
2018-07-25T10:11:44.962Z,39.10
2018-07-25T10:14:13.418Z,39.10
2018-07-25T10:16:41.882Z,39.70
2018-07-25T10:19:10.461Z,39.90
2018-07-25T10:21:38.937Z,40.10
2018-07-25T10:24:07.438Z,39.90
2018-07-25T10:26:35.963Z,39.50
2018-07-25T10:29:04.666Z,40.10
2018-07-25T10:31:33.598Z,40.10
2018-07-25T10:34:11.960Z,40.00
2018-07-25T10:36:41.408Z,39.70
2018-07-25T10:39:10.856Z,39.40
2018-07-25T10:41:39.542Z,39.50
2018-07-25T10:44:08.214Z,39.80
2018-07-25T10:46:46.984Z,40.40
2018-07-25T10:49:15.695Z,39.90
2018-07-25T10:51:44.430Z,39.90
2018-07-25T10:54:13.170Z,40.20
2018-07-25T10:59:09.871Z,40.60
2018-07-25T11:01:38.396Z,39.50
2018-07-25T11:04:07.028Z,39.60
2018-07-25T11:06:35.595Z,39.90
2018-07-25T11:09:24.109Z,40.60
2018-07-25T11:11:52.551Z,39.90
2018-07-25T11:14:20.994Z,39.70
2018-07-25T11:16:49.482Z,40.20
2018-07-25T11:19:17.938Z,39.80
2018-07-25T11:21:46.370Z,39.40
2018-07-25T11:24:14.842Z,39.70
2018-07-25T11:26:43.263Z,39.70
2018-07-25T11:29:11.886Z,40.00
2018-07-25T11:31:40.321Z,41.00
2018-07-25T11:34:08.764Z,40.90
2018-07-25T11:36:37.197Z,40.30
2018-07-25T11:39:08.570Z,39.80
2018-07-25T11:41:37.030Z,39.40
2018-07-25T11:44:05.615Z,39.10
2018-07-25T11:46:34.038Z,38.40
2018-07-25T11:49:02.602Z,38.10
2018-07-25T11:51:31.050Z,37.70
2018-07-25T11:56:27.606Z,37.10
2018-07-25T11:58:56.058Z,37.30
2018-07-25T12:01:26.588Z,36.60
2018-07-25T12:03:55.324Z,36.10
2018-07-25T12:06:24.070Z,36.30
2018-07-25T12:08:52.757Z,36.00
2018-07-25T12:11:21.230Z,36.00
2018-07-25T12:13:49.757Z,35.90
2018-07-25T12:16:18.405Z,35.50
2018-07-25T12:18:47.114Z,35.00
2018-07-25T12:21:15.918Z,34.90
2018-07-25T12:23:44.417Z,35.50
2018-07-25T12:26:12.894Z,35.90
2018-07-25T12:28:41.358Z,37.10
2018-07-25T12:31:09.846Z,37.40
2018-07-25T12:33:38.358Z,37.90
2018-07-25T12:36:07.030Z,38.10
2018-07-25T12:41:03.694Z,37.30
2018-07-25T12:46:00.373Z,36.40
2018-07-25T12:48:28.917Z,36.70
2018-07-25T12:50:57.277Z,36.70
2018-07-25T12:53:25.759Z,37.00
2018-07-25T12:55:54.295Z,36.70
2018-07-25T12:58:22.790Z,36.60
2018-07-25T13:00:51.257Z,37.00
2018-07-25T13:03:19.762Z,37.50
2018-07-25T13:06:05.799Z,36.90
2018-07-25T13:08:34.282Z,36.30
2018-07-25T13:11:02.825Z,36.10
2018-07-25T13:13:31.254Z,35.80
2018-07-25T13:15:59.743Z,36.40
2018-07-25T13:18:28.185Z,36.90
2018-07-25T13:20:56.686Z,37.00
2018-07-25T13:25:53.286Z,36.70
2018-07-25T13:28:21.787Z,36.20
2018-07-25T13:30:50.186Z,36.00
2018-07-25T13:33:18.649Z,36.20
2018-07-25T13:35:47.097Z,36.50
2018-07-25T13:38:15.529Z,36.50
2018-07-25T13:40:43.970Z,36.90
2018-07-25T13:43:12.510Z,37.30
2018-07-25T13:45:41.062Z,37.40
2018-07-25T13:48:09.773Z,37.60
2018-07-25T13:50:38.278Z,37.60
2018-07-25T13:53:06.813Z,38.40
2018-07-25T13:55:35.286Z,38.30
2018-07-25T13:58:03.774Z,38.50
2018-07-25T14:00:32.237Z,38.40
2018-07-25T14:03:00.706Z,38.30
2018-07-25T14:05:29.386Z,37.90
2018-07-25T14:07:57.834Z,37.70
2018-07-25T14:10:26.265Z,37.10
2018-07-25T14:12:54.729Z,36.00
2018-07-25T14:15:23.669Z,35.30
2018-07-25T14:17:52.149Z,34.90
2018-07-25T14:20:21.490Z,34.90
2018-07-25T14:22:49.948Z,34.10
2018-07-25T14:25:19.109Z,33.90
2018-07-25T14:27:47.583Z,34.10
2018-07-25T14:30:16.155Z,34.00
2018-07-25T14:32:44.544Z,33.20
2018-07-25T14:35:13.014Z,33.20
2018-07-25T14:37:41.608Z,33.20
2018-07-25T14:40:10.400Z,33.00
2018-07-25T14:42:38.958Z,33.10
2018-07-25T14:45:07.460Z,33.30
2018-07-25T14:47:35.966Z,33.30
2018-07-25T14:50:04.829Z,33.60
2018-07-25T14:52:33.330Z,33.30
2018-07-25T14:55:01.874Z,33.00
2018-07-25T14:57:30.362Z,33.10
2018-07-25T14:59:59.022Z,32.90
2018-07-25T15:02:28.612Z,32.80
2018-07-25T15:05:06.261Z,32.60
2018-07-25T15:07:35.635Z,32.60
2018-07-25T15:10:04.840Z,32.80
2018-07-25T15:12:39.677Z,33.00
2018-07-25T15:15:08.170Z,32.90
2018-07-25T15:17:37.044Z,32.90
2018-07-25T15:20:06.615Z,32.80
2018-07-25T15:22:35.131Z,32.80
2018-07-25T15:25:03.744Z,32.90
2018-07-25T15:27:32.370Z,32.80
2018-07-25T15:30:00.882Z,32.80
2018-07-25T15:32:29.443Z,32.90
2018-07-25T15:34:58.008Z,33.10
2018-07-25T15:37:26.538Z,32.90
2018-07-25T15:39:56.806Z,33.00
2018-07-25T15:42:25.385Z,32.80
2018-07-25T15:44:53.890Z,33.00
2018-07-25T15:47:22.454Z,33.00
2018-07-25T15:49:51.173Z,33.00
2018-07-25T15:52:19.707Z,32.80
2018-07-25T15:54:48.207Z,32.60
2018-07-25T15:57:16.759Z,32.50
2018-07-25T15:59:45.321Z,32.50
2018-07-25T16:02:13.904Z,32.50
2018-07-25T16:04:42.403Z,32.40
2018-07-25T16:07:10.958Z,32.30
2018-07-25T16:09:39.504Z,32.30
2018-07-25T16:12:08.014Z,32.40
2018-07-25T16:14:36.522Z,32.30
2018-07-25T16:17:05.108Z,32.20
2018-07-25T16:19:33.609Z,32.20
2018-07-25T16:22:02.141Z,32.30
2018-07-25T16:24:30.726Z,32.30
2018-07-25T16:26:59.165Z,32.40
2018-07-25T16:29:27.662Z,32.20
2018-07-25T16:31:56.214Z,32.20
2018-07-25T16:34:24.685Z,32.10
2018-07-25T16:36:53.179Z,32.10
2018-07-25T16:39:21.720Z,32.20
2018-07-25T16:41:50.222Z,32.10
2018-07-25T16:44:19.599Z,31.90
2018-07-25T16:46:48.764Z,31.90
2018-07-25T16:49:17.262Z,31.70
2018-07-25T16:51:45.778Z,30.20
2018-07-25T16:54:14.301Z,29.30
2018-07-25T16:56:42.789Z,29.30
2018-07-25T16:59:11.290Z,29.50
2018-07-25T17:01:39.846Z,29.70
2018-07-25T17:04:08.354Z,29.90
2018-07-25T17:06:36.833Z,30.20
2018-07-25T17:09:16.516Z,30.40
2018-07-25T17:11:45.218Z,30.50
2018-07-25T17:14:13.725Z,30.60
2018-07-25T17:16:42.321Z,30.60
2018-07-25T17:19:10.832Z,30.60
2018-07-25T17:21:39.335Z,30.70
2018-07-25T17:24:07.815Z,30.80
2018-07-25T17:26:36.303Z,30.80
2018-07-25T17:29:04.832Z,30.80
2018-07-25T17:31:33.321Z,30.70
2018-07-25T17:34:01.830Z,30.80
2018-07-25T17:36:30.334Z,30.70
2018-07-25T17:38:58.831Z,30.70
2018-07-25T17:41:27.328Z,30.70
2018-07-25T17:43:55.809Z,30.70
2018-07-25T17:46:24.359Z,30.60
2018-07-25T17:48:52.827Z,30.50
2018-07-25T17:51:21.285Z,30.50
2018-07-25T17:53:49.828Z,30.50
2018-07-25T17:56:18.383Z,30.50
2018-07-25T17:58:47.592Z,30.40
2018-07-25T18:01:16.099Z,30.30
2018-07-25T18:03:44.684Z,30.20
2018-07-25T18:06:13.119Z,30.20
2018-07-25T18:08:42.162Z,30.10
2018-07-25T18:11:10.693Z,30.10
2018-07-25T18:13:44.517Z,30.00
2018-07-25T18:16:13.009Z,29.90
2018-07-25T18:18:42.233Z,29.80
2018-07-25T18:21:10.781Z,29.70
2018-07-25T18:23:39.221Z,29.60
2018-07-25T18:26:07.745Z,29.40
2018-07-25T18:28:36.228Z,29.20
2018-07-25T18:31:04.809Z,29.00
2018-07-25T18:33:33.347Z,28.70
2018-07-25T18:36:01.814Z,28.40
2018-07-25T18:38:30.312Z,28.20
2018-07-25T18:40:58.818Z,28.00
2018-07-25T18:43:27.421Z,27.70
2018-07-25T18:45:55.893Z,27.50
2018-07-25T18:48:24.376Z,27.30
2018-07-25T18:50:52.887Z,27.20
2018-07-25T18:53:21.351Z,27.00
2018-07-25T18:55:49.834Z,26.70
2018-07-25T18:58:18.425Z,26.50
2018-07-25T19:00:47.194Z,26.30
2018-07-25T19:03:15.869Z,26.30
2018-07-25T19:05:44.529Z,26.20
2018-07-25T19:08:18.131Z,26.10
2018-07-25T19:10:46.619Z,26.10
2018-07-25T19:13:20.520Z,26.00
2018-07-25T19:15:49.033Z,25.90
2018-07-25T19:18:17.546Z,25.70
2018-07-25T19:20:46.014Z,25.70
2018-07-25T19:23:14.478Z,25.70
2018-07-25T19:25:42.946Z,25.50
2018-07-25T19:28:11.451Z,25.50
2018-07-25T19:30:39.895Z,25.50
2018-07-25T19:33:08.465Z,25.40
2018-07-25T19:35:38.141Z,25.30
2018-07-25T19:38:06.894Z,25.20
2018-07-25T19:40:35.418Z,24.90
2018-07-25T19:43:03.972Z,24.80
2018-07-25T19:45:32.461Z,24.60
2018-07-25T19:48:00.905Z,24.60
2018-07-25T19:50:29.403Z,24.30
2018-07-25T19:52:57.878Z,24.20
2018-07-25T19:55:26.374Z,24.10
2018-07-25T19:57:54.848Z,24.00
2018-07-25T20:00:23.318Z,23.90
2018-07-25T20:02:52.067Z,23.90
2018-07-25T20:05:20.553Z,23.80
2018-07-25T20:07:50.114Z,23.70
2018-07-25T20:10:18.638Z,23.60
2018-07-25T20:12:47.143Z,23.60
2018-07-25T20:15:20.766Z,23.50
2018-07-25T20:17:49.284Z,23.40
2018-07-25T20:20:17.809Z,23.30
2018-07-25T20:22:46.286Z,23.20
2018-07-25T20:25:16.010Z,23.10
2018-07-25T20:27:44.669Z,23.00
2018-07-25T20:30:13.185Z,22.80
2018-07-25T20:32:41.810Z,22.80
2018-07-25T20:35:10.469Z,22.70
2018-07-25T20:37:39.016Z,22.60
2018-07-25T20:40:07.991Z,22.50
2018-07-25T20:42:36.647Z,22.50
2018-07-25T20:45:06.071Z,22.50
2018-07-25T20:47:34.544Z,22.40
2018-07-25T20:50:03.098Z,22.30
2018-07-25T20:52:31.744Z,22.10
2018-07-25T20:55:00.288Z,22.10
2018-07-25T20:57:28.804Z,22.10
2018-07-25T20:59:57.312Z,22.00
2018-07-25T21:02:25.859Z,21.90
2018-07-25T21:04:55.074Z,21.90
2018-07-25T21:07:23.657Z,21.80
2018-07-25T21:09:52.110Z,21.80
2018-07-25T21:12:21.337Z,21.80
2018-07-25T21:14:49.825Z,21.70
2018-07-25T21:17:18.280Z,21.60
2018-07-25T21:19:46.818Z,21.50
2018-07-25T21:22:15.294Z,21.40
2018-07-25T21:24:43.809Z,21.40
2018-07-25T21:27:12.393Z,21.30
2018-07-25T21:29:40.880Z,21.20
2018-07-25T21:32:09.412Z,21.10
2018-07-25T21:34:37.981Z,21.10
2018-07-25T21:37:06.482Z,21.00
2018-07-25T21:39:35.001Z,21.00
2018-07-25T21:42:03.539Z,20.90
2018-07-25T21:44:32.029Z,20.80
2018-07-25T21:47:00.541Z,20.90
2018-07-25T21:49:29.030Z,20.80
2018-07-25T21:51:57.495Z,20.80
2018-07-25T21:54:26.037Z,20.70
2018-07-25T21:56:54.534Z,20.60
2018-07-25T21:59:23.245Z,20.70
2018-07-25T22:01:51.762Z,20.50
2018-07-25T22:04:20.216Z,20.50
2018-07-25T22:06:48.721Z,20.40
2018-07-25T22:09:17.192Z,20.50
2018-07-25T22:11:45.658Z,20.40
2018-07-25T22:14:14.132Z,20.30
2018-07-25T22:16:42.576Z,20.30
2018-07-25T22:19:11.043Z,20.30
2018-07-25T22:21:39.540Z,20.20
2018-07-25T22:24:09.808Z,20.20
2018-07-25T22:26:38.287Z,20.20
2018-07-25T22:29:06.927Z,20.30
2018-07-25T22:31:35.474Z,20.30
2018-07-25T22:36:32.117Z,20.20
2018-07-25T22:39:00.701Z,20.10
2018-07-25T22:41:29.201Z,20.10
2018-07-25T22:43:57.669Z,20.20
2018-07-25T22:46:26.191Z,20.20
2018-07-25T22:48:54.712Z,20.20
2018-07-25T22:51:23.190Z,20.20
2018-07-25T22:53:52.472Z,20.20
2018-07-25T22:56:20.929Z,20.10
2018-07-25T22:58:49.439Z,20.10
2018-07-25T23:01:18.871Z,20.00
2018-07-25T23:03:47.409Z,20.00
2018-07-25T23:06:15.899Z,20.00
2018-07-25T23:08:44.362Z,19.90
2018-07-25T23:11:12.856Z,20.00
2018-07-25T23:13:47.525Z,20.00
2018-07-25T23:18:45.789Z,19.90
2018-07-25T23:21:14.274Z,19.90
2018-07-25T23:23:42.891Z,19.90
2018-07-25T23:26:11.349Z,19.90
2018-07-25T23:28:39.834Z,20.00
2018-07-25T23:31:08.336Z,20.00
2018-07-25T23:33:36.820Z,20.00
2018-07-25T23:36:05.272Z,19.90
2018-07-25T23:38:33.749Z,19.70
2018-07-25T23:41:02.311Z,19.80
2018-07-25T23:43:30.744Z,19.70
2018-07-25T23:45:59.225Z,19.80
2018-07-25T23:48:27.730Z,19.90
2018-07-25T23:50:56.291Z,20.00
2018-07-25T23:53:24.873Z,20.10
2018-07-25T23:55:53.402Z,20.10
2018-07-25T23:58:21.889Z,20.00
